createdAt,value
2023-04-16T00:01:31.632Z,6.88
2023-04-16T00:04:00.520Z,8.85
2023-04-16T00:06:29.354Z,10.57
2023-04-16T00:08:57.903Z,10.80
2023-04-16T00:11:26.471Z,11.65
2023-04-16T00:13:55.997Z,9.63
2023-04-16T00:16:24.570Z,9.45
2023-04-16T00:18:54.616Z,9.32
2023-04-16T00:21:23.080Z,12.77
2023-04-16T00:23:51.651Z,9.75
2023-04-16T00:26:20.223Z,10.82
2023-04-16T00:28:48.753Z,8.68
2023-04-16T00:31:17.381Z,9.00
2023-04-16T00:33:45.863Z,8.38
2023-04-16T00:36:15.906Z,11.23
2023-04-16T00:38:44.456Z,7.50
2023-04-16T00:41:12.864Z,10.43
2023-04-16T00:43:41.402Z,10.70
2023-04-16T00:46:10.356Z,9.52
2023-04-16T00:48:40.401Z,7.97
2023-04-16T00:51:10.230Z,11.73
2023-04-16T00:53:40.448Z,7.43
2023-04-16T00:56:09.324Z,8.53
2023-04-16T00:58:38.594Z,8.60
2023-04-16T01:01:07.475Z,10.50
2023-04-16T01:03:39.990Z,8.50
2023-04-16T01:06:09.045Z,10.45
2023-04-16T01:08:37.527Z,9.27
2023-04-16T01:11:08.208Z,9.32
2023-04-16T01:13:39.918Z,12.00
2023-04-16T01:16:09.082Z,7.05
2023-04-16T01:18:38.294Z,6.40
2023-04-16T01:21:08.770Z,7.45
2023-04-16T01:23:37.304Z,8.27
2023-04-16T01:26:05.857Z,11.15
2023-04-16T01:28:34.433Z,7.45
2023-04-16T01:31:02.910Z,8.88
2023-04-16T01:33:50.141Z,8.98
2023-04-16T01:36:20.220Z,12.20
2023-04-16T01:38:48.722Z,8.48
2023-04-16T01:41:17.376Z,8.90
2023-04-16T01:43:45.781Z,9.98
2023-04-16T01:46:16.831Z,9.30
2023-04-16T01:51:13.850Z,7.63
2023-04-16T01:53:43.999Z,8.23
2023-04-16T01:56:12.683Z,8.85
2023-04-16T01:58:42.950Z,10.82
2023-04-16T02:01:12.025Z,9.10
2023-04-16T02:03:42.454Z,12.20
2023-04-16T02:06:11.295Z,11.00
2023-04-16T02:08:39.757Z,6.88
2023-04-16T02:11:10.384Z,9.35
2023-04-16T02:13:38.904Z,8.43
2023-04-16T02:16:07.971Z,8.60
2023-04-16T02:19:11.998Z,10.57
2023-04-16T02:21:42.993Z,10.52
2023-04-16T02:24:11.831Z,7.88
2023-04-16T02:26:42.032Z,7.93
2023-04-16T02:29:16.765Z,9.23
2023-04-16T02:31:51.722Z,13.32
2023-04-16T02:34:21.045Z,13.65
2023-04-16T02:36:49.788Z,8.85
2023-04-16T02:39:18.341Z,7.97
2023-04-16T02:41:48.300Z,7.32
2023-04-16T02:44:17.030Z,11.80
2023-04-16T02:46:45.646Z,7.13
2023-04-16T02:49:14.418Z,8.75
2023-04-16T02:51:42.879Z,7.88
2023-04-16T02:54:11.581Z,7.85
2023-04-16T02:56:40.129Z,10.50
2023-04-16T02:59:10.110Z,9.05
2023-04-16T03:01:38.894Z,9.37
2023-04-16T03:04:07.585Z,9.95
2023-04-16T03:06:36.249Z,9.52
2023-04-16T03:09:05.332Z,7.47
2023-04-16T03:11:34.104Z,8.75
2023-04-16T03:14:02.770Z,9.23
2023-04-16T03:16:32.862Z,10.00
2023-04-16T03:19:01.549Z,11.18
2023-04-16T03:21:30.163Z,7.90
2023-04-16T03:24:00.319Z,9.00
2023-04-16T03:26:28.961Z,11.60
2023-04-16T03:28:57.863Z,10.55
2023-04-16T03:31:26.813Z,9.15
2023-04-16T03:33:57.558Z,11.68
2023-04-16T03:36:27.326Z,8.75
2023-04-16T03:38:56.004Z,9.00
2023-04-16T03:41:25.403Z,11.98
2023-04-16T03:43:54.154Z,9.10
2023-04-16T03:46:22.774Z,9.95
2023-04-16T03:48:51.619Z,9.80
2023-04-16T03:51:22.140Z,8.88
2023-04-16T03:53:50.720Z,10.27
2023-04-16T03:56:20.122Z,12.57
2023-04-16T03:58:48.683Z,10.65
2023-04-16T04:01:17.422Z,8.63
2023-04-16T04:03:46.728Z,9.18
2023-04-16T04:06:16.917Z,8.57
2023-04-16T04:08:47.119Z,11.15
2023-04-16T04:11:16.667Z,8.60
2023-04-16T04:13:46.370Z,10.23
2023-04-16T04:16:15.100Z,11.60
2023-04-16T04:18:45.325Z,10.47
2023-04-16T04:21:17.225Z,13.85
2023-04-16T04:23:47.590Z,11.80
2023-04-16T04:26:16.750Z,9.48
2023-04-16T04:28:45.282Z,9.05
2023-04-16T04:31:14.049Z,9.60
2023-04-16T04:36:14.255Z,12.27
2023-04-16T04:38:43.820Z,14.05
2023-04-16T04:41:14.131Z,9.55
2023-04-16T04:43:42.882Z,10.43
2023-04-16T04:46:11.676Z,10.73
2023-04-16T04:48:42.069Z,13.00
2023-04-16T04:51:10.995Z,10.32
2023-04-16T04:53:39.580Z,9.82
2023-04-16T04:56:12.716Z,14.55
2023-04-16T04:58:51.394Z,11.43
2023-04-16T05:01:21.672Z,13.20
2023-04-16T05:03:50.526Z,14.27
2023-04-16T05:06:19.318Z,14.52
2023-04-16T05:08:47.965Z,13.23
2023-04-16T05:11:16.899Z,12.90
2023-04-16T05:13:47.449Z,17.02
2023-04-16T05:16:16.080Z,13.20
2023-04-16T05:18:44.691Z,13.95
2023-04-16T05:21:13.372Z,18.58
2023-04-16T05:23:41.988Z,20.13
2023-04-16T05:26:10.502Z,19.23
2023-04-16T05:28:39.199Z,18.48
2023-04-16T05:31:09.507Z,19.55
2023-04-16T05:33:38.178Z,22.83
2023-04-16T05:36:07.435Z,23.42
2023-04-16T05:38:36.024Z,23.75
2023-04-16T05:41:04.636Z,22.65
2023-04-16T05:43:33.390Z,21.58
2023-04-16T05:46:01.878Z,21.75
2023-04-16T05:48:32.035Z,24.85
2023-04-16T05:51:02.448Z,20.92
2023-04-16T05:53:31.046Z,23.83
2023-04-16T05:55:59.751Z,24.05
2023-04-16T05:58:28.353Z,21.25
2023-04-16T06:00:57.083Z,21.73
2023-04-16T06:03:25.830Z,20.42
2023-04-16T06:05:56.139Z,23.83
2023-04-16T06:08:24.858Z,19.80
2023-04-16T06:10:53.500Z,19.63
2023-04-16T06:13:22.179Z,21.67
2023-04-16T06:15:50.920Z,16.90
2023-04-16T06:18:19.474Z,19.63
2023-04-16T06:20:48.813Z,18.83
2023-04-16T06:23:19.041Z,20.05
2023-04-16T06:25:47.664Z,18.77
2023-04-16T06:28:16.174Z,15.85
2023-04-16T06:30:44.932Z,22.85
2023-04-16T06:33:13.624Z,21.05
2023-04-16T06:35:42.460Z,20.50
2023-04-16T06:38:11.025Z,17.88
2023-04-16T06:40:41.160Z,17.42
2023-04-16T06:43:09.968Z,16.40
2023-04-16T06:45:38.491Z,19.73
2023-04-16T06:48:07.581Z,24.75
2023-04-16T06:50:36.317Z,21.85
2023-04-16T06:53:05.015Z,20.55
2023-04-16T06:55:33.771Z,18.98
2023-04-16T06:58:03.875Z,20.65
2023-04-16T07:00:32.696Z,22.50
2023-04-16T07:03:03.671Z,18.83
2023-04-16T07:05:32.590Z,17.50
2023-04-16T07:08:01.157Z,16.00
2023-04-16T07:10:29.780Z,20.05
2023-04-16T07:12:58.465Z,16.65
2023-04-16T07:15:28.665Z,16.02
2023-04-16T07:17:57.431Z,19.23
2023-04-16T07:20:25.958Z,18.02
2023-04-16T07:22:54.588Z,16.70
2023-04-16T07:25:23.299Z,18.25
2023-04-16T07:27:51.732Z,15.73
2023-04-16T07:30:20.159Z,18.63
2023-04-16T07:32:49.977Z,16.15
2023-04-16T07:35:18.622Z,17.88
2023-04-16T07:37:46.915Z,15.18
2023-04-16T07:40:15.627Z,16.55
2023-04-16T07:42:44.808Z,17.77
2023-04-16T07:45:13.555Z,14.70
2023-04-16T07:47:42.079Z,18.30
2023-04-16T07:50:12.616Z,16.17
2023-04-16T07:52:42.607Z,17.67
2023-04-16T07:55:11.482Z,14.98
2023-04-16T07:57:40.034Z,19.25
2023-04-16T08:00:09.916Z,16.33
2023-04-16T08:02:41.542Z,17.98
2023-04-16T08:05:12.755Z,17.02
2023-04-16T08:10:10.773Z,17.52
2023-04-16T08:12:39.419Z,16.15
2023-04-16T08:15:09.242Z,17.10
2023-04-16T08:17:38.016Z,16.00
2023-04-16T08:20:07.806Z,20.88
2023-04-16T08:22:37.874Z,16.23
2023-04-16T08:25:07.131Z,19.92
2023-04-16T08:27:35.896Z,20.80
2023-04-16T08:30:04.571Z,20.40
2023-04-16T08:32:33.222Z,18.73
2023-04-16T08:35:01.870Z,18.20
2023-04-16T08:37:30.453Z,18.55
2023-04-16T08:40:01.284Z,13.48
2023-04-16T08:42:33.382Z,15.15
2023-04-16T08:45:08.860Z,15.05
2023-04-16T08:47:38.146Z,16.83
2023-04-16T08:50:07.819Z,18.27
2023-04-16T08:52:44.806Z,16.15
2023-04-16T08:55:17.862Z,14.75
2023-04-16T08:57:49.902Z,14.77
2023-04-16T09:00:18.925Z,16.63
2023-04-16T09:02:47.790Z,15.90
2023-04-16T09:05:18.416Z,15.63
2023-04-16T09:07:47.764Z,15.20
2023-04-16T09:10:18.809Z,16.75
2023-04-16T09:12:47.729Z,14.30
2023-04-16T09:15:16.212Z,13.85
2023-04-16T09:17:44.787Z,15.70
2023-04-16T09:20:14.039Z,18.50
2023-04-16T09:22:42.807Z,12.02
2023-04-16T09:25:12.352Z,17.95
2023-04-16T09:27:42.611Z,13.55
2023-04-16T09:30:24.837Z,14.20
2023-04-16T09:32:54.869Z,15.93
2023-04-16T09:35:23.437Z,15.23
2023-04-16T09:37:58.088Z,13.10
2023-04-16T09:40:27.800Z,19.52
2023-04-16T09:43:01.207Z,12.55
2023-04-16T09:45:34.148Z,16.98
2023-04-16T09:48:06.730Z,19.10
2023-04-16T09:50:35.229Z,15.85
2023-04-16T09:53:04.926Z,13.68
2023-04-16T09:55:34.587Z,15.90
2023-04-16T09:58:04.539Z,18.10
2023-04-16T10:00:33.133Z,14.95
2023-04-16T10:03:07.063Z,15.45
2023-04-16T10:05:36.577Z,21.63
2023-04-16T10:08:12.456Z,20.90
2023-04-16T10:10:41.729Z,15.38
2023-04-16T10:13:12.931Z,18.40
2023-04-16T10:15:42.148Z,18.23
2023-04-16T10:18:11.100Z,15.00
2023-04-16T10:20:40.602Z,14.88
2023-04-16T10:23:09.283Z,19.58
2023-04-16T10:25:39.635Z,16.65
2023-04-16T10:28:09.011Z,24.90
2023-04-16T10:30:39.678Z,15.85
2023-04-16T10:33:09.839Z,14.77
2023-04-16T10:35:41.780Z,22.40
2023-04-16T10:38:27.681Z,22.38
2023-04-16T10:41:04.315Z,21.02
2023-04-16T10:43:35.199Z,19.27
2023-04-16T10:46:20.706Z,18.38
2023-04-16T10:48:50.981Z,21.83
2023-04-16T10:51:29.467Z,19.15
2023-04-16T10:53:59.141Z,19.40
2023-04-16T10:56:28.341Z,18.83
2023-04-16T10:58:57.609Z,17.48
2023-04-16T11:01:32.858Z,18.38
2023-04-16T11:04:03.419Z,17.52
2023-04-16T11:06:32.296Z,19.80
2023-04-16T11:09:01.144Z,19.10
2023-04-16T11:11:38.890Z,17.95
2023-04-16T11:14:08.150Z,18.65
2023-04-16T11:16:42.177Z,16.33
2023-04-16T11:19:18.229Z,17.75
2023-04-16T11:21:46.959Z,17.08
2023-04-16T11:24:15.599Z,19.67
2023-04-16T11:26:44.384Z,13.65
2023-04-16T11:29:16.464Z,15.55
2023-04-16T11:31:52.049Z,16.05
2023-04-16T11:34:21.440Z,15.15
2023-04-16T11:36:51.516Z,18.25
2023-04-16T11:39:20.383Z,14.45
2023-04-16T11:41:50.249Z,13.68
2023-04-16T11:44:20.246Z,13.32
2023-04-16T11:46:50.483Z,16.88
2023-04-16T11:49:19.285Z,17.77
2023-04-16T11:51:48.899Z,13.70
2023-04-16T11:54:21.739Z,18.02
2023-04-16T11:56:51.638Z,16.60
2023-04-16T11:59:22.623Z,14.23
2023-04-16T12:04:24.759Z,17.15
2023-04-16T12:07:10.301Z,16.50
2023-04-16T12:09:40.761Z,17.60
2023-04-16T12:12:27.851Z,17.38
2023-04-16T12:14:57.589Z,13.00
2023-04-16T12:17:27.985Z,13.70
2023-04-16T12:19:59.435Z,10.23
2023-04-16T12:22:32.902Z,12.40
2023-04-16T12:25:04.469Z,14.20
2023-04-16T12:27:51.446Z,20.52
2023-04-16T12:30:24.411Z,29.15
2023-04-16T12:33:14.481Z,17.15
2023-04-16T12:35:43.816Z,63.38
2023-04-16T12:38:15.314Z,15.00
2023-04-16T12:40:44.054Z,15.10
2023-04-16T12:43:12.603Z,16.73
2023-04-16T12:45:41.879Z,12.70
2023-04-16T12:48:11.947Z,15.63
2023-04-16T12:50:40.959Z,13.48
2023-04-16T12:53:09.545Z,15.50
2023-04-16T12:55:38.215Z,13.88
2023-04-16T12:58:06.878Z,14.63
2023-04-16T13:00:35.497Z,14.05
2023-04-16T13:03:06.305Z,12.25
2023-04-16T13:05:36.425Z,20.85
2023-04-16T13:08:05.086Z,13.25
2023-04-16T13:10:33.686Z,17.10
2023-04-16T13:13:02.227Z,11.57
2023-04-16T13:15:30.732Z,14.45
2023-04-16T13:17:59.441Z,18.45
2023-04-16T13:20:28.070Z,12.50
2023-04-16T13:22:58.712Z,15.63
2023-04-16T13:25:27.430Z,13.15
2023-04-16T13:27:55.967Z,14.10
2023-04-16T13:30:25.633Z,15.52
2023-04-16T13:32:54.394Z,10.88
2023-04-16T13:35:22.942Z,14.32
2023-04-16T13:37:51.566Z,12.65
2023-04-16T13:40:21.958Z,14.55
2023-04-16T13:42:50.473Z,14.90
2023-04-16T13:45:20.485Z,16.55
2023-04-16T13:47:49.203Z,13.10
2023-04-16T13:50:17.951Z,12.38
2023-04-16T13:52:46.421Z,14.77
2023-04-16T13:55:18.370Z,15.40
2023-04-16T13:57:49.853Z,12.35
2023-04-16T14:00:20.043Z,14.32
2023-04-16T14:02:49.067Z,13.17
2023-04-16T14:05:17.901Z,11.07
2023-04-16T14:07:46.565Z,14.18
2023-04-16T14:10:15.116Z,10.20
2023-04-16T14:12:44.706Z,12.95
2023-04-16T14:15:16.060Z,9.45
2023-04-16T14:17:45.346Z,10.55
2023-04-16T14:20:15.880Z,12.60
2023-04-16T14:22:46.761Z,12.80
2023-04-16T14:25:15.400Z,12.98
2023-04-16T14:27:43.915Z,12.05
2023-04-16T14:30:13.121Z,12.25
2023-04-16T14:32:43.194Z,13.25
2023-04-16T14:35:11.806Z,12.33
2023-04-16T14:37:41.078Z,10.32
2023-04-16T14:40:11.152Z,12.07
2023-04-16T14:42:40.744Z,12.20
2023-04-16T14:45:10.391Z,11.20
2023-04-16T14:47:46.005Z,10.88
2023-04-16T14:50:16.588Z,11.88
2023-04-16T14:52:45.185Z,16.25
2023-04-16T14:55:13.912Z,11.15
2023-04-16T14:57:42.513Z,12.82
2023-04-16T15:00:12.371Z,14.38
2023-04-16T15:02:41.287Z,17.10
2023-04-16T15:05:11.085Z,13.15
2023-04-16T15:07:41.407Z,33.60
2023-04-16T15:10:12.823Z,16.83
2023-04-16T15:12:41.471Z,18.48
2023-04-16T15:15:11.336Z,16.00
2023-04-16T15:17:40.095Z,19.25
2023-04-16T15:20:10.616Z,19.35
2023-04-16T15:22:41.943Z,17.58
2023-04-16T15:25:11.102Z,14.25
2023-04-16T15:27:39.606Z,13.95
2023-04-16T15:30:09.749Z,14.10
2023-04-16T15:32:38.390Z,10.60
2023-04-16T15:35:09.858Z,16.30
2023-04-16T15:37:41.507Z,17.33
2023-04-16T15:40:10.959Z,15.43
2023-04-16T15:42:40.249Z,14.50
2023-04-16T15:45:09.263Z,16.20
2023-04-16T15:47:40.176Z,17.10
2023-04-16T15:50:10.647Z,15.35
2023-04-16T15:52:40.751Z,16.48
2023-04-16T15:55:10.805Z,16.30
2023-04-16T15:57:39.384Z,15.98
2023-04-16T16:00:13.744Z,16.98
2023-04-16T16:02:43.366Z,17.63
2023-04-16T16:05:12.507Z,16.23
2023-04-16T16:07:43.096Z,16.05
2023-04-16T16:10:13.344Z,15.77
2023-04-16T16:12:42.562Z,18.75
2023-04-16T16:15:12.165Z,15.65
2023-04-16T16:17:41.005Z,15.30
2023-04-16T16:20:10.947Z,14.55
2023-04-16T16:22:40.846Z,14.60
2023-04-16T16:25:11.367Z,16.30
2023-04-16T16:27:40.873Z,15.52
2023-04-16T16:30:10.926Z,14.30
2023-04-16T16:32:41.308Z,18.65
2023-04-16T16:35:11.156Z,15.98
2023-04-16T16:37:40.472Z,19.77
2023-04-16T16:40:11.672Z,18.60
2023-04-16T16:42:40.316Z,22.73
2023-04-16T16:45:10.050Z,30.85
2023-04-16T16:47:38.725Z,71.30
2023-04-16T16:50:08.389Z,30.30
2023-04-16T16:52:36.919Z,23.42
2023-04-16T16:55:05.918Z,20.15
2023-04-16T16:57:35.906Z,19.20
2023-04-16T17:00:06.178Z,21.60
2023-04-16T17:02:34.929Z,15.15
2023-04-16T17:05:03.553Z,14.77
2023-04-16T17:07:32.452Z,15.43
2023-04-16T17:10:03.803Z,17.08
2023-04-16T17:12:35.454Z,15.18
2023-04-16T17:15:03.878Z,14.68
2023-04-16T17:17:33.205Z,12.93
2023-04-16T17:20:04.839Z,12.63
2023-04-16T17:22:34.559Z,14.38
2023-04-16T17:25:03.979Z,15.60
2023-04-16T17:27:34.512Z,14.85
2023-04-16T17:30:05.911Z,16.83
2023-04-16T17:32:34.490Z,15.27
2023-04-16T17:35:04.891Z,15.30
2023-04-16T17:37:33.923Z,14.80
2023-04-16T17:40:05.919Z,15.57
2023-04-16T17:42:34.812Z,17.50
2023-04-16T17:45:04.793Z,15.73
2023-04-16T17:47:35.584Z,15.88
2023-04-16T17:50:04.812Z,18.00
2023-04-16T17:52:33.448Z,17.48
2023-04-16T17:55:02.144Z,20.25
2023-04-16T17:57:30.705Z,14.07
2023-04-16T17:59:59.440Z,18.08
2023-04-16T18:02:29.855Z,27.52
2023-04-16T18:04:58.480Z,25.88
2023-04-16T18:07:27.347Z,29.92
2023-04-16T18:09:55.883Z,29.55
2023-04-16T18:12:24.402Z,25.83
2023-04-16T18:14:52.864Z,24.23
2023-04-16T18:17:22.156Z,19.95
2023-04-16T18:19:52.221Z,17.65
2023-04-16T18:22:20.678Z,25.40
2023-04-16T18:24:49.262Z,21.27
2023-04-16T18:27:18.065Z,22.77
2023-04-16T18:29:46.597Z,24.27
2023-04-16T18:32:15.140Z,23.20
2023-04-16T18:34:44.331Z,21.30
2023-04-16T18:37:14.502Z,22.52
2023-04-16T18:39:43.033Z,25.90
2023-04-16T18:42:11.452Z,23.60
2023-04-16T18:44:39.980Z,22.10
2023-04-16T18:47:08.497Z,19.35
2023-04-16T18:49:37.096Z,17.75
2023-04-16T18:52:05.532Z,24.35
2023-04-16T18:54:36.812Z,15.60
2023-04-16T18:57:05.599Z,16.85
2023-04-16T18:59:34.322Z,15.93
2023-04-16T19:02:02.983Z,20.48
2023-04-16T19:04:31.764Z,20.15
2023-04-16T19:07:00.338Z,18.73
2023-04-16T19:09:28.799Z,15.73
2023-04-16T19:11:58.638Z,22.98
2023-04-16T19:14:27.094Z,18.55
2023-04-16T19:16:55.658Z,18.80
2023-04-16T19:19:24.144Z,16.98
2023-04-16T19:21:52.605Z,19.33
2023-04-16T19:24:21.210Z,18.42
2023-04-16T19:26:50.087Z,15.48
2023-04-16T19:29:19.901Z,18.27
2023-04-16T19:31:48.402Z,17.60
2023-04-16T19:34:17.048Z,22.33
2023-04-16T19:36:46.425Z,18.52
2023-04-16T19:39:15.385Z,18.38
2023-04-16T19:41:43.919Z,20.02
2023-04-16T19:44:12.479Z,26.45
2023-04-16T19:46:42.581Z,20.48
2023-04-16T19:49:11.457Z,18.88
2023-04-16T19:51:40.131Z,19.45
2023-04-16T19:54:09.780Z,21.02
2023-04-16T19:56:38.431Z,17.77
2023-04-16T19:59:07.117Z,19.65
2023-04-16T20:02:02.152Z,16.77
2023-04-16T20:04:30.924Z,17.38
2023-04-16T20:06:59.471Z,19.33
2023-04-16T20:09:28.276Z,15.02
2023-04-16T20:11:58.226Z,19.15
2023-04-16T20:14:26.757Z,22.58
2023-04-16T20:16:55.460Z,18.63
2023-04-16T20:19:26.581Z,16.92
2023-04-16T20:24:48.549Z,18.52
2023-04-16T20:27:17.114Z,13.98
2023-04-16T20:29:45.888Z,17.92
2023-04-16T20:32:14.425Z,23.40
2023-04-16T20:34:44.505Z,18.92
2023-04-16T20:37:13.093Z,16.85
2023-04-16T20:39:42.352Z,22.85
2023-04-16T20:42:11.380Z,18.90
2023-04-16T20:44:41.608Z,18.80
2023-04-16T20:47:11.710Z,20.52
2023-04-16T20:49:40.489Z,19.23
2023-04-16T20:52:10.653Z,21.33
2023-04-16T20:54:39.244Z,16.05
2023-04-16T20:57:07.951Z,18.83
2023-04-16T20:59:37.056Z,18.23
2023-04-16T21:02:06.140Z,18.63
2023-04-16T21:04:34.855Z,18.98
2023-04-16T21:07:04.401Z,20.27
2023-04-16T21:09:34.388Z,18.48
2023-04-16T21:12:03.088Z,19.80
2023-04-16T21:14:31.995Z,21.20
2023-04-16T21:17:00.658Z,18.88
2023-04-16T21:19:29.291Z,19.92
2023-04-16T21:21:58.083Z,19.67
2023-04-16T21:24:26.744Z,18.60
2023-04-16T21:26:57.564Z,20.13
2023-04-16T21:29:26.290Z,20.50
2023-04-16T21:31:55.570Z,23.27
2023-04-16T21:34:24.383Z,21.90
2023-04-16T21:36:52.930Z,20.85
2023-04-16T21:39:23.024Z,22.63
2023-04-16T21:41:51.878Z,17.20
2023-04-16T21:44:21.957Z,24.65
2023-04-16T21:46:50.600Z,20.07
2023-04-16T21:49:19.231Z,20.95
2023-04-16T21:51:47.913Z,17.25
2023-04-16T21:54:18.712Z,22.40
2023-04-16T21:56:47.463Z,20.48
2023-04-16T21:59:16.123Z,21.05
2023-04-16T22:01:46.620Z,20.55
2023-04-16T22:04:15.406Z,23.15
2023-04-16T22:06:46.450Z,22.70
2023-04-16T22:09:15.671Z,25.45
2023-04-16T22:11:46.705Z,20.83
2023-04-16T22:16:50.093Z,23.95
2023-04-16T22:19:20.003Z,23.60
2023-04-16T22:21:48.936Z,23.92
2023-04-16T22:24:17.597Z,23.42
2023-04-16T22:26:46.177Z,24.65
2023-04-16T22:29:14.674Z,22.55
2023-04-16T22:31:43.244Z,26.15
2023-04-16T22:34:13.565Z,21.58
2023-04-16T22:36:42.098Z,23.05
2023-04-16T22:39:10.794Z,21.92
2023-04-16T22:41:39.697Z,23.70
2023-04-16T22:44:08.098Z,26.35
2023-04-16T22:46:36.685Z,19.92
2023-04-16T22:49:05.375Z,25.10
2023-04-16T22:51:35.405Z,23.05
2023-04-16T22:54:04.015Z,19.02
2023-04-16T22:56:32.484Z,21.35
2023-04-16T22:59:01.046Z,20.05
2023-04-16T23:01:29.525Z,24.52
2023-04-16T23:03:58.178Z,25.25
2023-04-16T23:06:27.353Z,23.10
2023-04-16T23:08:57.363Z,21.63
2023-04-16T23:11:26.013Z,20.55
2023-04-16T23:13:54.613Z,21.83
2023-04-16T23:16:23.220Z,21.70
2023-04-16T23:18:51.786Z,24.00
2023-04-16T23:21:20.213Z,24.40
2023-04-16T23:23:48.801Z,24.17
2023-04-16T23:26:18.864Z,27.25
2023-04-16T23:28:47.272Z,23.33
2023-04-16T23:31:15.858Z,25.00
2023-04-16T23:33:44.388Z,26.70
2023-04-16T23:36:12.860Z,23.90
2023-04-16T23:38:41.376Z,24.23
2023-04-16T23:41:09.890Z,24.15
2023-04-16T23:43:40.896Z,24.15
2023-04-16T23:46:09.458Z,25.25
2023-04-16T23:48:37.894Z,25.80
2023-04-16T23:51:06.605Z,26.20
2023-04-16T23:53:36.574Z,24.75
2023-04-16T23:56:05.204Z,21.80
2023-04-16T23:58:33.665Z,25.05
